sensor_id;sensor_type;location;lat;lon;timestamp;P1;durP1;ratioP1;P2;durP2;ratioP2
42000;SDS011;27689;48.390;10.856;2023-07-13T00:03:46;7.45;;;4.50;;
42000;SDS011;27689;48.390;10.856;2023-07-13T00:06:30;9.27;;;5.60;;
42000;SDS011;27689;48.390;10.856;2023-07-13T00:09:16;5.10;;;4.47;;
42000;SDS011;27689;48.390;10.856;2023-07-13T00:12:01;6.25;;;5.15;;
42000;SDS011;27689;48.390;10.856;2023-07-13T00:14:45;7.18;;;5.07;;
42000;SDS011;27689;48.390;10.856;2023-07-13T00:17:29;7.55;;;5.30;;
42000;SDS011;27689;48.390;10.856;2023-07-13T00:20:14;7.18;;;5.10;;
42000;SDS011;27689;48.390;10.856;2023-07-13T00:22:57;6.03;;;4.93;;
42000;SDS011;27689;48.390;10.856;2023-07-13T00:25:41;6.10;;;5.40;;
42000;SDS011;27689;48.390;10.856;2023-07-13T00:28:25;7.03;;;5.53;;
42000;SDS011;27689;48.390;10.856;2023-07-13T00:31:10;10.87;;;6.23;;
42000;SDS011;27689;48.390;10.856;2023-07-13T00:33:54;8.02;;;6.05;;
42000;SDS011;27689;48.390;10.856;2023-07-13T00:36:38;6.90;;;5.55;;
42000;SDS011;27689;48.390;10.856;2023-07-13T00:39:22;7.22;;;6.32;;
42000;SDS011;27689;48.390;10.856;2023-07-13T00:42:06;7.90;;;5.78;;
42000;SDS011;27689;48.390;10.856;2023-07-13T00:47:56;9.88;;;6.72;;
42000;SDS011;27689;48.390;10.856;2023-07-13T00:50:41;8.95;;;5.65;;
42000;SDS011;27689;48.390;10.856;2023-07-13T00:53:28;8.07;;;6.43;;
42000;SDS011;27689;48.390;10.856;2023-07-13T00:56:15;9.32;;;6.43;;
42000;SDS011;27689;48.390;10.856;2023-07-13T00:59:00;9.43;;;6.50;;
42000;SDS011;27689;48.390;10.856;2023-07-13T01:01:46;8.05;;;6.20;;
42000;SDS011;27689;48.390;10.856;2023-07-13T01:04:31;6.90;;;6.03;;
42000;SDS011;27689;48.390;10.856;2023-07-13T01:07:15;7.20;;;6.47;;
42000;SDS011;27689;48.390;10.856;2023-07-13T01:09:59;9.23;;;6.97;;
42000;SDS011;27689;48.390;10.856;2023-07-13T01:12:44;8.68;;;6.80;;
42000;SDS011;27689;48.390;10.856;2023-07-13T01:18:26;7.93;;;5.88;;
42000;SDS011;27689;48.390;10.856;2023-07-13T01:21:11;9.35;;;5.95;;
42000;SDS011;27689;48.390;10.856;2023-07-13T01:23:55;7.38;;;6.43;;
42000;SDS011;27689;48.390;10.856;2023-07-13T01:26:39;9.30;;;7.25;;
42000;SDS011;27689;48.390;10.856;2023-07-13T01:29:23;8.88;;;7.28;;
42000;SDS011;27689;48.390;10.856;2023-07-13T01:32:08;10.55;;;7.00;;
42000;SDS011;27689;48.390;10.856;2023-07-13T01:34:54;8.35;;;7.53;;
42000;SDS011;27689;48.390;10.856;2023-07-13T01:37:38;10.82;;;8.02;;
42000;SDS011;27689;48.390;10.856;2023-07-13T01:40:25;11.70;;;8.00;;
42000;SDS011;27689;48.390;10.856;2023-07-13T01:43:09;13.95;;;7.88;;
42000;SDS011;27689;48.390;10.856;2023-07-13T01:45:54;9.25;;;8.13;;
42000;SDS011;27689;48.390;10.856;2023-07-13T01:48:38;11.73;;;8.23;;
42000;SDS011;27689;48.390;10.856;2023-07-13T01:51:22;12.57;;;9.40;;
42000;SDS011;27689;48.390;10.856;2023-07-13T01:54:06;11.00;;;9.02;;
42000;SDS011;27689;48.390;10.856;2023-07-13T01:56:50;8.15;;;7.32;;
42000;SDS011;27689;48.390;10.856;2023-07-13T01:59:37;11.70;;;8.63;;
42000;SDS011;27689;48.390;10.856;2023-07-13T02:02:21;9.77;;;8.77;;
42000;SDS011;27689;48.390;10.856;2023-07-13T02:05:06;10.45;;;9.32;;
42000;SDS011;27689;48.390;10.856;2023-07-13T02:07:53;10.38;;;8.40;;
42000;SDS011;27689;48.390;10.856;2023-07-13T02:10:37;12.48;;;7.95;;
42000;SDS011;27689;48.390;10.856;2023-07-13T02:13:21;13.20;;;8.82;;
42000;SDS011;27689;48.390;10.856;2023-07-13T02:16:05;11.55;;;6.90;;
42000;SDS011;27689;48.390;10.856;2023-07-13T02:18:50;8.57;;;7.47;;
42000;SDS011;27689;48.390;10.856;2023-07-13T02:21:35;10.10;;;8.40;;
42000;SDS011;27689;48.390;10.856;2023-07-13T02:24:22;9.77;;;7.57;;
42000;SDS011;27689;48.390;10.856;2023-07-13T02:27:09;11.65;;;7.00;;
42000;SDS011;27689;48.390;10.856;2023-07-13T02:29:56;10.57;;;7.25;;
42000;SDS011;27689;48.390;10.856;2023-07-13T02:32:40;13.25;;;8.32;;
42000;SDS011;27689;48.390;10.856;2023-07-13T02:35:23;9.77;;;7.07;;
42000;SDS011;27689;48.390;10.856;2023-07-13T02:38:07;11.30;;;8.35;;
42000;SDS011;27689;48.390;10.856;2023-07-13T02:40:52;11.35;;;7.57;;
42000;SDS011;27689;48.390;10.856;2023-07-13T02:43:38;9.43;;;7.75;;
42000;SDS011;27689;48.390;10.856;2023-07-13T02:46:25;9.57;;;7.22;;
42000;SDS011;27689;48.390;10.856;2023-07-13T02:49:09;9.20;;;6.78;;
42000;SDS011;27689;48.390;10.856;2023-07-13T02:51:53;9.90;;;7.68;;
42000;SDS011;27689;48.390;10.856;2023-07-13T02:54:40;7.25;;;6.55;;
42000;SDS011;27689;48.390;10.856;2023-07-13T02:57:30;9.15;;;6.50;;
42000;SDS011;27689;48.390;10.856;2023-07-13T03:00:20;7.40;;;5.97;;
42000;SDS011;27689;48.390;10.856;2023-07-13T03:03:12;6.85;;;5.75;;
42000;SDS011;27689;48.390;10.856;2023-07-13T03:05:58;7.82;;;5.82;;
42000;SDS011;27689;48.390;10.856;2023-07-13T03:08:44;14.55;;;7.35;;
42000;SDS011;27689;48.390;10.856;2023-07-13T03:11:28;9.52;;;6.70;;
42000;SDS011;27689;48.390;10.856;2023-07-13T03:14:12;8.52;;;5.47;;
42000;SDS011;27689;48.390;10.856;2023-07-13T03:16:59;8.02;;;5.25;;
42000;SDS011;27689;48.390;10.856;2023-07-13T03:19:45;8.00;;;6.20;;
42000;SDS011;27689;48.390;10.856;2023-07-13T03:22:38;7.82;;;6.32;;
42000;SDS011;27689;48.390;10.856;2023-07-13T03:25:22;10.48;;;6.20;;
42000;SDS011;27689;48.390;10.856;2023-07-13T03:28:09;5.75;;;4.93;;
42000;SDS011;27689;48.390;10.856;2023-07-13T03:30:59;6.68;;;5.60;;
42000;SDS011;27689;48.390;10.856;2023-07-13T03:33:48;8.07;;;5.97;;
42000;SDS011;27689;48.390;10.856;2023-07-13T03:36:33;8.57;;;5.90;;
42000;SDS011;27689;48.390;10.856;2023-07-13T03:39:17;8.38;;;5.63;;
42000;SDS011;27689;48.390;10.856;2023-07-13T03:42:01;6.60;;;5.78;;
42000;SDS011;27689;48.390;10.856;2023-07-13T03:44:44;8.93;;;5.90;;
42000;SDS011;27689;48.390;10.856;2023-07-13T03:47:34;7.68;;;5.30;;
42000;SDS011;27689;48.390;10.856;2023-07-13T03:50:18;6.72;;;5.15;;
42000;SDS011;27689;48.390;10.856;2023-07-13T03:53:02;7.35;;;5.55;;
42000;SDS011;27689;48.390;10.856;2023-07-13T03:55:48;8.43;;;5.10;;
42000;SDS011;27689;48.390;10.856;2023-07-13T03:58:34;5.10;;;4.45;;
42000;SDS011;27689;48.390;10.856;2023-07-13T04:01:19;5.80;;;4.70;;
42000;SDS011;27689;48.390;10.856;2023-07-13T04:04:05;6.10;;;4.40;;
42000;SDS011;27689;48.390;10.856;2023-07-13T04:06:49;8.45;;;4.35;;
42000;SDS011;27689;48.390;10.856;2023-07-13T04:09:32;6.57;;;4.25;;
42000;SDS011;27689;48.390;10.856;2023-07-13T04:12:16;5.63;;;3.85;;
42000;SDS011;27689;48.390;10.856;2023-07-13T04:15:00;6.97;;;4.40;;
42000;SDS011;27689;48.390;10.856;2023-07-13T04:17:44;8.18;;;5.07;;
42000;SDS011;27689;48.390;10.856;2023-07-13T04:20:28;5.82;;;3.83;;
42000;SDS011;27689;48.390;10.856;2023-07-13T04:23:13;5.13;;;3.63;;
42000;SDS011;27689;48.390;10.856;2023-07-13T04:25:57;6.65;;;3.88;;
42000;SDS011;27689;48.390;10.856;2023-07-13T04:28:41;6.17;;;3.77;;
42000;SDS011;27689;48.390;10.856;2023-07-13T04:31:25;5.53;;;3.90;;
42000;SDS011;27689;48.390;10.856;2023-07-13T04:34:09;9.30;;;4.30;;
42000;SDS011;27689;48.390;10.856;2023-07-13T04:36:53;7.72;;;3.85;;
42000;SDS011;27689;48.390;10.856;2023-07-13T04:39:37;8.47;;;3.90;;
42000;SDS011;27689;48.390;10.856;2023-07-13T04:42:21;8.90;;;3.97;;
42000;SDS011;27689;48.390;10.856;2023-07-13T04:45:06;7.13;;;3.30;;
42000;SDS011;27689;48.390;10.856;2023-07-13T04:50:37;12.10;;;3.88;;
42000;SDS011;27689;48.390;10.856;2023-07-13T04:53:22;8.65;;;3.67;;
42000;SDS011;27689;48.390;10.856;2023-07-13T04:56:06;5.93;;;3.80;;
42000;SDS011;27689;48.390;10.856;2023-07-13T04:58:50;5.35;;;3.45;;
42000;SDS011;27689;48.390;10.856;2023-07-13T05:01:34;5.07;;;3.28;;
42000;SDS011;27689;48.390;10.856;2023-07-13T05:04:18;5.70;;;3.63;;
42000;SDS011;27689;48.390;10.856;2023-07-13T05:07:02;4.45;;;3.35;;
42000;SDS011;27689;48.390;10.856;2023-07-13T05:09:46;6.72;;;3.40;;
42000;SDS011;27689;48.390;10.856;2023-07-13T05:12:31;4.85;;;3.50;;
42000;SDS011;27689;48.390;10.856;2023-07-13T05:15:15;5.30;;;3.40;;
42000;SDS011;27689;48.390;10.856;2023-07-13T05:18:04;5.43;;;3.70;;
42000;SDS011;27689;48.390;10.856;2023-07-13T05:20:54;8.18;;;4.53;;
42000;SDS011;27689;48.390;10.856;2023-07-13T05:23:41;6.93;;;3.30;;
42000;SDS011;27689;48.390;10.856;2023-07-13T05:26:28;4.32;;;3.33;;
42000;SDS011;27689;48.390;10.856;2023-07-13T05:29:12;5.25;;;3.63;;
42000;SDS011;27689;48.390;10.856;2023-07-13T05:31:56;6.03;;;3.57;;
42000;SDS011;27689;48.390;10.856;2023-07-13T05:34:40;4.87;;;3.10;;
42000;SDS011;27689;48.390;10.856;2023-07-13T05:37:24;6.68;;;3.17;;
42000;SDS011;27689;48.390;10.856;2023-07-13T05:40:08;11.43;;;3.08;;
42000;SDS011;27689;48.390;10.856;2023-07-13T05:42:52;3.10;;;2.75;;
42000;SDS011;27689;48.390;10.856;2023-07-13T05:45:36;5.50;;;2.88;;
42000;SDS011;27689;48.390;10.856;2023-07-13T05:48:20;7.30;;;3.55;;
42000;SDS011;27689;48.390;10.856;2023-07-13T05:51:04;4.15;;;2.78;;
42000;SDS011;27689;48.390;10.856;2023-07-13T05:53:48;7.60;;;3.08;;
42000;SDS011;27689;48.390;10.856;2023-07-13T05:56:32;3.72;;;3.10;;
42000;SDS011;27689;48.390;10.856;2023-07-13T05:59:17;4.30;;;2.95;;
42000;SDS011;27689;48.390;10.856;2023-07-13T06:02:02;6.55;;;3.03;;
42000;SDS011;27689;48.390;10.856;2023-07-13T06:04:46;4.85;;;2.60;;
42000;SDS011;27689;48.390;10.856;2023-07-13T06:07:30;3.85;;;3.20;;
42000;SDS011;27689;48.390;10.856;2023-07-13T06:10:14;3.63;;;2.67;;
42000;SDS011;27689;48.390;10.856;2023-07-13T06:12:58;9.98;;;3.03;;
42000;SDS011;27689;48.390;10.856;2023-07-13T06:15:42;5.30;;;2.92;;
42000;SDS011;27689;48.390;10.856;2023-07-13T06:18:25;5.13;;;3.03;;
42000;SDS011;27689;48.390;10.856;2023-07-13T06:21:10;5.57;;;2.83;;
42000;SDS011;27689;48.390;10.856;2023-07-13T06:23:56;6.10;;;3.00;;
42000;SDS011;27689;48.390;10.856;2023-07-13T06:26:40;6.10;;;3.50;;
42000;SDS011;27689;48.390;10.856;2023-07-13T06:29:24;6.57;;;3.33;;
42000;SDS011;27689;48.390;10.856;2023-07-13T06:32:08;7.55;;;2.75;;
42000;SDS011;27689;48.390;10.856;2023-07-13T06:34:52;4.60;;;2.75;;
42000;SDS011;27689;48.390;10.856;2023-07-13T06:37:36;5.07;;;3.00;;
42000;SDS011;27689;48.390;10.856;2023-07-13T06:40:20;6.82;;;2.85;;
42000;SDS011;27689;48.390;10.856;2023-07-13T06:43:04;4.60;;;2.58;;
42000;SDS011;27689;48.390;10.856;2023-07-13T06:45:48;5.90;;;2.60;;
42000;SDS011;27689;48.390;10.856;2023-07-13T06:48:33;5.78;;;2.50;;
42000;SDS011;27689;48.390;10.856;2023-07-13T06:51:17;5.93;;;3.00;;
42000;SDS011;27689;48.390;10.856;2023-07-13T06:54:01;3.17;;;2.55;;
42000;SDS011;27689;48.390;10.856;2023-07-13T06:56:45;3.67;;;2.30;;
42000;SDS011;27689;48.390;10.856;2023-07-13T06:59:29;5.47;;;2.50;;
42000;SDS011;27689;48.390;10.856;2023-07-13T07:02:13;3.38;;;2.60;;
42000;SDS011;27689;48.390;10.856;2023-07-13T07:04:56;3.58;;;2.58;;
42000;SDS011;27689;48.390;10.856;2023-07-13T07:07:40;4.07;;;2.42;;
42000;SDS011;27689;48.390;10.856;2023-07-13T07:10:25;4.85;;;2.50;;
42000;SDS011;27689;48.390;10.856;2023-07-13T07:13:09;3.47;;;2.40;;
42000;SDS011;27689;48.390;10.856;2023-07-13T07:15:53;4.03;;;2.00;;
42000;SDS011;27689;48.390;10.856;2023-07-13T07:18:38;5.35;;;2.53;;
42000;SDS011;27689;48.390;10.856;2023-07-13T07:21:22;8.07;;;2.67;;
42000;SDS011;27689;48.390;10.856;2023-07-13T07:24:06;3.58;;;2.55;;
42000;SDS011;27689;48.390;10.856;2023-07-13T07:26:51;4.63;;;2.47;;
42000;SDS011;27689;48.390;10.856;2023-07-13T07:29:35;2.80;;;1.97;;
42000;SDS011;27689;48.390;10.856;2023-07-13T07:32:19;5.93;;;2.42;;
42000;SDS011;27689;48.390;10.856;2023-07-13T07:35:03;6.53;;;2.50;;
42000;SDS011;27689;48.390;10.856;2023-07-13T07:37:48;6.05;;;2.33;;
42000;SDS011;27689;48.390;10.856;2023-07-13T07:40:32;3.97;;;2.20;;
42000;SDS011;27689;48.390;10.856;2023-07-13T07:43:20;5.18;;;2.40;;
42000;SDS011;27689;48.390;10.856;2023-07-13T07:46:05;8.57;;;2.33;;
42000;SDS011;27689;48.390;10.856;2023-07-13T07:48:49;5.78;;;2.22;;
42000;SDS011;27689;48.390;10.856;2023-07-13T07:51:33;5.50;;;2.10;;
42000;SDS011;27689;48.390;10.856;2023-07-13T07:54:17;5.85;;;2.50;;
42000;SDS011;27689;48.390;10.856;2023-07-13T07:57:01;2.85;;;1.95;;
42000;SDS011;27689;48.390;10.856;2023-07-13T07:59:45;3.25;;;1.88;;
42000;SDS011;27689;48.390;10.856;2023-07-13T08:02:28;6.45;;;1.92;;
42000;SDS011;27689;48.390;10.856;2023-07-13T08:05:12;3.72;;;1.95;;
42000;SDS011;27689;48.390;10.856;2023-07-13T08:07:56;4.90;;;2.00;;
42000;SDS011;27689;48.390;10.856;2023-07-13T08:10:40;5.43;;;2.03;;
42000;SDS011;27689;48.390;10.856;2023-07-13T08:13:24;5.80;;;2.33;;
42000;SDS011;27689;48.390;10.856;2023-07-13T08:16:08;2.78;;;1.73;;
42000;SDS011;27689;48.390;10.856;2023-07-13T08:18:52;4.15;;;2.10;;
42000;SDS011;27689;48.390;10.856;2023-07-13T08:21:36;1.77;;;1.45;;
42000;SDS011;27689;48.390;10.856;2023-07-13T08:24:22;4.93;;;1.75;;
42000;SDS011;27689;48.390;10.856;2023-07-13T08:27:06;4.60;;;1.42;;
42000;SDS011;27689;48.390;10.856;2023-07-13T08:29:51;4.53;;;2.13;;
42000;SDS011;27689;48.390;10.856;2023-07-13T08:32:36;6.00;;;3.47;;
42000;SDS011;27689;48.390;10.856;2023-07-13T08:35:20;4.90;;;2.20;;
42000;SDS011;27689;48.390;10.856;2023-07-13T08:38:04;4.85;;;1.83;;
42000;SDS011;27689;48.390;10.856;2023-07-13T08:40:50;5.57;;;2.05;;
42000;SDS011;27689;48.390;10.856;2023-07-13T08:43:36;6.18;;;2.03;;
42000;SDS011;27689;48.390;10.856;2023-07-13T08:49:20;8.45;;;1.95;;
42000;SDS011;27689;48.390;10.856;2023-07-13T08:52:09;4.15;;;1.58;;
42000;SDS011;27689;48.390;10.856;2023-07-13T08:55:03;4.10;;;2.05;;
42000;SDS011;27689;48.390;10.856;2023-07-13T08:58:05;3.58;;;2.00;;
42000;SDS011;27689;48.390;10.856;2023-07-13T09:01:13;4.10;;;1.70;;
42000;SDS011;27689;48.390;10.856;2023-07-13T09:04:18;5.55;;;1.80;;
42000;SDS011;27689;48.390;10.856;2023-07-13T09:10:15;6.63;;;1.80;;
42000;SDS011;27689;48.390;10.856;2023-07-13T09:13:13;3.95;;;1.63;;
42000;SDS011;27689;48.390;10.856;2023-07-13T09:16:15;6.40;;;1.52;;
42000;SDS011;27689;48.390;10.856;2023-07-13T09:19:04;5.05;;;1.80;;
42000;SDS011;27689;48.390;10.856;2023-07-13T09:21:50;6.55;;;2.00;;
42000;SDS011;27689;48.390;10.856;2023-07-13T09:24:46;3.60;;;1.60;;
42000;SDS011;27689;48.390;10.856;2023-07-13T09:27:38;3.78;;;1.70;;
42000;SDS011;27689;48.390;10.856;2023-07-13T09:33:22;3.78;;;1.60;;
42000;SDS011;27689;48.390;10.856;2023-07-13T09:36:20;4.30;;;1.63;;
42000;SDS011;27689;48.390;10.856;2023-07-13T09:45:00;3.03;;;1.55;;
42000;SDS011;27689;48.390;10.856;2023-07-13T09:47:50;3.45;;;1.60;;
42000;SDS011;27689;48.390;10.856;2023-07-13T09:50:56;2.20;;;1.63;;
42000;SDS011;27689;48.390;10.856;2023-07-13T09:53:50;3.75;;;1.67;;
42000;SDS011;27689;48.390;10.856;2023-07-13T09:56:34;2.83;;;1.52;;
42000;SDS011;27689;48.390;10.856;2023-07-13T09:59:19;4.00;;;1.60;;
42000;SDS011;27689;48.390;10.856;2023-07-13T10:02:28;4.20;;;1.58;;
42000;SDS011;27689;48.390;10.856;2023-07-13T10:05:15;6.15;;;1.80;;
42000;SDS011;27689;48.390;10.856;2023-07-13T10:07:59;3.85;;;1.42;;
42000;SDS011;27689;48.390;10.856;2023-07-13T10:10:43;5.20;;;2.08;;
42000;SDS011;27689;48.390;10.856;2023-07-13T10:13:36;3.72;;;1.65;;
42000;SDS011;27689;48.390;10.856;2023-07-13T10:16:28;3.70;;;1.73;;
42000;SDS011;27689;48.390;10.856;2023-07-13T10:19:26;2.28;;;1.55;;
42000;SDS011;27689;48.390;10.856;2023-07-13T10:25:25;3.08;;;1.50;;
42000;SDS011;27689;48.390;10.856;2023-07-13T10:31:24;3.60;;;1.67;;
42000;SDS011;27689;48.390;10.856;2023-07-13T10:34:09;5.28;;;1.52;;
42000;SDS011;27689;48.390;10.856;2023-07-13T10:36:55;2.15;;;1.35;;
42000;SDS011;27689;48.390;10.856;2023-07-13T10:39:39;5.15;;;1.70;;
42000;SDS011;27689;48.390;10.856;2023-07-13T10:42:31;5.78;;;1.95;;
42000;SDS011;27689;48.390;10.856;2023-07-13T10:45:21;3.28;;;1.60;;
42000;SDS011;27689;48.390;10.856;2023-07-13T10:48:08;3.60;;;1.65;;
42000;SDS011;27689;48.390;10.856;2023-07-13T10:50:56;8.15;;;2.00;;
42000;SDS011;27689;48.390;10.856;2023-07-13T10:53:44;5.60;;;1.45;;
42000;SDS011;27689;48.390;10.856;2023-07-13T10:56:29;5.50;;;1.80;;
42000;SDS011;27689;48.390;10.856;2023-07-13T10:59:26;2.63;;;1.58;;
42000;SDS011;27689;48.390;10.856;2023-07-13T11:02:15;4.25;;;1.52;;
42000;SDS011;27689;48.390;10.856;2023-07-13T11:05:26;3.83;;;1.48;;
42000;SDS011;27689;48.390;10.856;2023-07-13T11:08:16;3.70;;;1.60;;
42000;SDS011;27689;48.390;10.856;2023-07-13T11:11:00;2.75;;;1.40;;
42000;SDS011;27689;48.390;10.856;2023-07-13T11:16:38;2.97;;;1.33;;
42000;SDS011;27689;48.390;10.856;2023-07-13T11:19:37;4.25;;;1.52;;
42000;SDS011;27689;48.390;10.856;2023-07-13T11:22:24;4.55;;;1.50;;
42000;SDS011;27689;48.390;10.856;2023-07-13T11:25:25;3.10;;;1.70;;
42000;SDS011;27689;48.390;10.856;2023-07-13T11:36:29;3.13;;;1.60;;
42000;SDS011;27689;48.390;10.856;2023-07-13T11:42:20;6.72;;;1.63;;
42000;SDS011;27689;48.390;10.856;2023-07-13T11:48:26;4.95;;;1.90;;
42000;SDS011;27689;48.390;10.856;2023-07-13T11:51:16;3.42;;;1.80;;
42000;SDS011;27689;48.390;10.856;2023-07-13T11:57:10;5.38;;;1.80;;
42000;SDS011;27689;48.390;10.856;2023-07-13T12:00:18;3.05;;;1.60;;
42000;SDS011;27689;48.390;10.856;2023-07-13T12:03:06;6.82;;;2.10;;
42000;SDS011;27689;48.390;10.856;2023-07-13T12:05:57;3.72;;;1.55;;
42000;SDS011;27689;48.390;10.856;2023-07-13T12:08:44;4.20;;;1.95;;
42000;SDS011;27689;48.390;10.856;2023-07-13T12:11:29;5.43;;;1.80;;
42000;SDS011;27689;48.390;10.856;2023-07-13T12:14:17;4.13;;;1.90;;
42000;SDS011;27689;48.390;10.856;2023-07-13T12:17:03;3.60;;;1.73;;
42000;SDS011;27689;48.390;10.856;2023-07-13T12:19:54;3.20;;;1.50;;
42000;SDS011;27689;48.390;10.856;2023-07-13T12:22:39;2.42;;;1.65;;
42000;SDS011;27689;48.390;10.856;2023-07-13T12:25:23;5.85;;;2.15;;
42000;SDS011;27689;48.390;10.856;2023-07-13T12:28:21;4.85;;;1.52;;
42000;SDS011;27689;48.390;10.856;2023-07-13T12:36:56;4.82;;;1.70;;
42000;SDS011;27689;48.390;10.856;2023-07-13T12:39:45;3.17;;;1.65;;
42000;SDS011;27689;48.390;10.856;2023-07-13T12:42:31;2.83;;;1.60;;
42000;SDS011;27689;48.390;10.856;2023-07-13T12:48:05;4.47;;;1.65;;
42000;SDS011;27689;48.390;10.856;2023-07-13T12:51:00;4.10;;;1.45;;
42000;SDS011;27689;48.390;10.856;2023-07-13T12:53:49;7.32;;;1.73;;
42000;SDS011;27689;48.390;10.856;2023-07-13T12:56:38;5.45;;;1.80;;
42000;SDS011;27689;48.390;10.856;2023-07-13T12:59:22;4.25;;;1.33;;
42000;SDS011;27689;48.390;10.856;2023-07-13T13:02:16;3.92;;;1.50;;
42000;SDS011;27689;48.390;10.856;2023-07-13T13:05:12;9.23;;;1.52;;
42000;SDS011;27689;48.390;10.856;2023-07-13T13:07:57;3.03;;;1.50;;
42000;SDS011;27689;48.390;10.856;2023-07-13T13:10:41;3.88;;;1.98;;
42000;SDS011;27689;48.390;10.856;2023-07-13T13:13:25;2.73;;;1.60;;
42000;SDS011;27689;48.390;10.856;2023-07-13T13:19:19;4.03;;;1.70;;
42000;SDS011;27689;48.390;10.856;2023-07-13T13:22:07;5.97;;;1.80;;
42000;SDS011;27689;48.390;10.856;2023-07-13T13:24:51;4.70;;;1.70;;
42000;SDS011;27689;48.390;10.856;2023-07-13T13:27:35;4.55;;;1.65;;
42000;SDS011;27689;48.390;10.856;2023-07-13T13:30:19;4.13;;;1.50;;
42000;SDS011;27689;48.390;10.856;2023-07-13T13:33:04;3.00;;;1.65;;
42000;SDS011;27689;48.390;10.856;2023-07-13T13:35:53;3.78;;;1.85;;
42000;SDS011;27689;48.390;10.856;2023-07-13T13:38:37;3.80;;;1.55;;
42000;SDS011;27689;48.390;10.856;2023-07-13T13:41:21;4.70;;;1.35;;
42000;SDS011;27689;48.390;10.856;2023-07-13T13:44:08;4.55;;;1.95;;
42000;SDS011;27689;48.390;10.856;2023-07-13T13:46:53;3.65;;;1.48;;
42000;SDS011;27689;48.390;10.856;2023-07-13T13:49:39;2.88;;;1.40;;
42000;SDS011;27689;48.390;10.856;2023-07-13T13:52:23;3.60;;;1.60;;
42000;SDS011;27689;48.390;10.856;2023-07-13T13:55:15;3.50;;;1.30;;
42000;SDS011;27689;48.390;10.856;2023-07-13T13:58:02;3.58;;;1.45;;
42000;SDS011;27689;48.390;10.856;2023-07-13T14:00:47;6.13;;;1.60;;
42000;SDS011;27689;48.390;10.856;2023-07-13T14:03:32;4.72;;;1.40;;
42000;SDS011;27689;48.390;10.856;2023-07-13T14:06:17;4.25;;;1.52;;
42000;SDS011;27689;48.390;10.856;2023-07-13T14:09:02;4.05;;;1.40;;
42000;SDS011;27689;48.390;10.856;2023-07-13T14:11:47;2.53;;;1.55;;
42000;SDS011;27689;48.390;10.856;2023-07-13T14:14:32;4.70;;;1.60;;
42000;SDS011;27689;48.390;10.856;2023-07-13T14:17:18;3.03;;;1.63;;
42000;SDS011;27689;48.390;10.856;2023-07-13T14:20:09;5.03;;;1.30;;
42000;SDS011;27689;48.390;10.856;2023-07-13T14:22:55;3.35;;;1.45;;
42000;SDS011;27689;48.390;10.856;2023-07-13T14:25:39;3.83;;;1.13;;
42000;SDS011;27689;48.390;10.856;2023-07-13T14:28:24;4.25;;;1.38;;
42000;SDS011;27689;48.390;10.856;2023-07-13T14:31:10;3.97;;;1.30;;
42000;SDS011;27689;48.390;10.856;2023-07-13T14:33:56;3.17;;;1.40;;
42000;SDS011;27689;48.390;10.856;2023-07-13T14:36:41;3.10;;;1.50;;
42000;SDS011;27689;48.390;10.856;2023-07-13T14:39:28;5.05;;;1.33;;
42000;SDS011;27689;48.390;10.856;2023-07-13T14:42:12;5.13;;;1.50;;
42000;SDS011;27689;48.390;10.856;2023-07-13T14:44:56;5.27;;;1.70;;
42000;SDS011;27689;48.390;10.856;2023-07-13T14:47:40;2.67;;;1.33;;
42000;SDS011;27689;48.390;10.856;2023-07-13T14:50:27;2.50;;;1.30;;
42000;SDS011;27689;48.390;10.856;2023-07-13T14:53:15;4.45;;;1.40;;
42000;SDS011;27689;48.390;10.856;2023-07-13T14:55:59;3.20;;;1.20;;
42000;SDS011;27689;48.390;10.856;2023-07-13T14:58:43;2.80;;;1.27;;
42000;SDS011;27689;48.390;10.856;2023-07-13T15:01:27;3.92;;;1.25;;
42000;SDS011;27689;48.390;10.856;2023-07-13T15:04:12;2.45;;;1.25;;
42000;SDS011;27689;48.390;10.856;2023-07-13T15:06:57;2.97;;;1.20;;
42000;SDS011;27689;48.390;10.856;2023-07-13T15:09:43;2.67;;;1.30;;
42000;SDS011;27689;48.390;10.856;2023-07-13T15:12:27;4.27;;;1.47;;
42000;SDS011;27689;48.390;10.856;2023-07-13T15:15:12;3.83;;;1.23;;
42000;SDS011;27689;48.390;10.856;2023-07-13T15:17:59;2.53;;;1.40;;
42000;SDS011;27689;48.390;10.856;2023-07-13T15:20:53;3.10;;;1.60;;
42000;SDS011;27689;48.390;10.856;2023-07-13T15:23:39;3.47;;;1.50;;
42000;SDS011;27689;48.390;10.856;2023-07-13T15:26:23;3.35;;;1.20;;
42000;SDS011;27689;48.390;10.856;2023-07-13T15:29:07;3.65;;;1.42;;
42000;SDS011;27689;48.390;10.856;2023-07-13T15:31:51;4.63;;;1.45;;
42000;SDS011;27689;48.390;10.856;2023-07-13T15:34:35;5.90;;;1.50;;
42000;SDS011;27689;48.390;10.856;2023-07-13T15:37:20;5.05;;;1.60;;
42000;SDS011;27689;48.390;10.856;2023-07-13T15:40:04;5.03;;;1.60;;
42000;SDS011;27689;48.390;10.856;2023-07-13T15:42:50;2.92;;;1.30;;
42000;SDS011;27689;48.390;10.856;2023-07-13T15:48:20;3.35;;;1.40;;
42000;SDS011;27689;48.390;10.856;2023-07-13T15:51:09;4.25;;;1.40;;
42000;SDS011;27689;48.390;10.856;2023-07-13T15:53:59;2.17;;;1.23;;
42000;SDS011;27689;48.390;10.856;2023-07-13T15:56:52;2.88;;;1.50;;
42000;SDS011;27689;48.390;10.856;2023-07-13T15:59:44;1.92;;;1.20;;
42000;SDS011;27689;48.390;10.856;2023-07-13T16:02:28;2.20;;;1.10;;
42000;SDS011;27689;48.390;10.856;2023-07-13T16:05:13;4.03;;;1.60;;
42000;SDS011;27689;48.390;10.856;2023-07-13T16:07:58;2.85;;;1.58;;
42000;SDS011;27689;48.390;10.856;2023-07-13T16:10:42;4.20;;;1.30;;
42000;SDS011;27689;48.390;10.856;2023-07-13T16:13:27;4.28;;;2.33;;
42000;SDS011;27689;48.390;10.856;2023-07-13T16:16:11;3.73;;;2.10;;
42000;SDS011;27689;48.390;10.856;2023-07-13T16:18:58;6.18;;;1.63;;
42000;SDS011;27689;48.390;10.856;2023-07-13T16:21:44;2.45;;;1.27;;
42000;SDS011;27689;48.390;10.856;2023-07-13T16:24:30;2.67;;;1.55;;
42000;SDS011;27689;48.390;10.856;2023-07-13T16:27:15;3.30;;;1.58;;
42000;SDS011;27689;48.390;10.856;2023-07-13T16:29:59;3.43;;;1.30;;
42000;SDS011;27689;48.390;10.856;2023-07-13T16:32:44;3.10;;;1.63;;
42000;SDS011;27689;48.390;10.856;2023-07-13T16:35:28;3.47;;;1.30;;
42000;SDS011;27689;48.390;10.856;2023-07-13T16:41:05;5.30;;;1.40;;
42000;SDS011;27689;48.390;10.856;2023-07-13T16:43:52;3.00;;;1.70;;
42000;SDS011;27689;48.390;10.856;2023-07-13T16:46:37;2.58;;;1.50;;
42000;SDS011;27689;48.390;10.856;2023-07-13T16:49:23;3.35;;;1.70;;
42000;SDS011;27689;48.390;10.856;2023-07-13T16:52:09;2.78;;;1.52;;
42000;SDS011;27689;48.390;10.856;2023-07-13T16:54:56;4.97;;;1.65;;
42000;SDS011;27689;48.390;10.856;2023-07-13T16:57:39;4.43;;;2.20;;
42000;SDS011;27689;48.390;10.856;2023-07-13T17:00:27;3.15;;;1.60;;
42000;SDS011;27689;48.390;10.856;2023-07-13T17:03:13;4.82;;;1.90;;
42000;SDS011;27689;48.390;10.856;2023-07-13T17:05:57;2.88;;;1.65;;
42000;SDS011;27689;48.390;10.856;2023-07-13T17:08:43;4.32;;;1.77;;
42000;SDS011;27689;48.390;10.856;2023-07-13T17:11:28;2.80;;;1.50;;
42000;SDS011;27689;48.390;10.856;2023-07-13T17:14:16;3.97;;;1.35;;
42000;SDS011;27689;48.390;10.856;2023-07-13T17:17:12;3.92;;;1.42;;
42000;SDS011;27689;48.390;10.856;2023-07-13T17:20:00;4.20;;;1.45;;
42000;SDS011;27689;48.390;10.856;2023-07-13T17:22:46;4.90;;;1.55;;
42000;SDS011;27689;48.390;10.856;2023-07-13T17:25:30;3.30;;;1.40;;
42000;SDS011;27689;48.390;10.856;2023-07-13T17:28:14;3.67;;;1.73;;
42000;SDS011;27689;48.390;10.856;2023-07-13T17:30:59;5.30;;;1.80;;
42000;SDS011;27689;48.390;10.856;2023-07-13T17:33:45;3.63;;;1.70;;
42000;SDS011;27689;48.390;10.856;2023-07-13T17:36:29;3.33;;;1.42;;